createdAt,value
2022-10-16T00:00:02.025Z,76.73
2022-10-16T00:02:51.504Z,77.10
2022-10-16T00:05:42.204Z,77.74
2022-10-16T00:08:28.318Z,78.04
2022-10-16T00:11:17.881Z,77.12
2022-10-16T00:14:04.969Z,77.30
2022-10-16T00:16:51.329Z,79.22
2022-10-16T00:19:37.069Z,79.31
2022-10-16T00:22:23.067Z,79.15
2022-10-16T00:25:09.785Z,77.71
2022-10-16T00:27:56.284Z,78.18
2022-10-16T00:30:42.749Z,78.11
2022-10-16T00:33:29.039Z,77.41
2022-10-16T00:36:17.261Z,76.87
2022-10-16T00:39:04.068Z,77.35
2022-10-16T00:41:50.553Z,77.32
2022-10-16T00:44:44.817Z,78.24
2022-10-16T00:47:42.184Z,76.82
2022-10-16T00:50:32.924Z,76.50
2022-10-16T00:53:18.608Z,76.41
2022-10-16T00:56:05.218Z,78.05
2022-10-16T00:58:51.339Z,77.50
2022-10-16T01:01:37.609Z,79.12
2022-10-16T01:04:23.948Z,78.76
2022-10-16T01:07:16.455Z,78.66
2022-10-16T01:10:20.879Z,78.25
2022-10-16T01:13:13.934Z,78.69
2022-10-16T01:16:00.179Z,78.37
2022-10-16T01:18:48.029Z,77.93
2022-10-16T01:21:39.818Z,77.42
2022-10-16T01:24:42.601Z,77.27
2022-10-16T01:27:29.772Z,77.99
2022-10-16T01:30:24.384Z,76.29
2022-10-16T01:33:11.489Z,77.36
2022-10-16T01:35:59.976Z,77.19
2022-10-16T01:38:46.128Z,78.11
2022-10-16T01:41:33.429Z,79.04
2022-10-16T01:44:23.779Z,80.61
2022-10-16T01:47:10.154Z,79.50
2022-10-16T01:49:56.041Z,78.18
2022-10-16T01:52:44.843Z,79.71
2022-10-16T01:55:32.061Z,79.51
2022-10-16T01:58:18.669Z,78.26
2022-10-16T02:01:04.999Z,80.48
2022-10-16T02:03:52.014Z,81.88
2022-10-16T02:06:38.137Z,79.29
2022-10-16T02:09:24.661Z,83.68
2022-10-16T02:12:15.509Z,81.03
2022-10-16T02:15:01.961Z,84.26
2022-10-16T02:17:48.117Z,80.75
2022-10-16T02:20:35.599Z,80.44
2022-10-16T02:23:25.325Z,79.27
2022-10-16T02:26:13.760Z,79.78
2022-10-16T02:29:06.025Z,78.64
2022-10-16T02:31:54.907Z,78.83
2022-10-16T02:34:40.940Z,79.72
2022-10-16T02:37:27.203Z,79.14
2022-10-16T02:40:13.598Z,78.13
2022-10-16T02:43:00.359Z,79.20
2022-10-16T02:45:46.726Z,77.96
2022-10-16T02:48:33.336Z,78.13
2022-10-16T02:51:19.852Z,78.75
2022-10-16T02:54:06.196Z,78.52
2022-10-16T02:56:53.081Z,78.04
2022-10-16T02:59:40.619Z,79.51
2022-10-16T03:02:26.618Z,79.23
2022-10-16T03:05:13.052Z,79.20
2022-10-16T03:08:01.687Z,79.57
2022-10-16T03:10:48.609Z,80.18
2022-10-16T03:13:34.626Z,80.93
2022-10-16T03:16:21.677Z,81.79
2022-10-16T03:19:08.275Z,82.87
2022-10-16T03:21:54.387Z,82.07
2022-10-16T03:24:40.431Z,82.22
2022-10-16T03:27:27.175Z,82.44
2022-10-16T03:30:13.742Z,83.91
2022-10-16T03:33:00.271Z,83.45
2022-10-16T03:35:51.805Z,83.70
2022-10-16T03:38:38.835Z,85.11
2022-10-16T03:41:24.556Z,84.92
2022-10-16T03:44:10.977Z,86.35
2022-10-16T03:46:57.127Z,86.17
2022-10-16T03:49:43.225Z,85.81
2022-10-16T03:52:29.697Z,86.17
2022-10-16T03:55:16.300Z,86.39
2022-10-16T03:58:02.596Z,87.06
2022-10-16T04:00:49.533Z,88.24
2022-10-16T04:03:35.855Z,87.78
2022-10-16T04:06:22.700Z,87.86
2022-10-16T04:09:09.124Z,87.50
2022-10-16T04:11:55.274Z,87.15
2022-10-16T04:14:42.162Z,85.99
2022-10-16T04:17:28.489Z,86.89
2022-10-16T04:20:21.006Z,87.95
2022-10-16T04:23:07.374Z,85.81
2022-10-16T04:25:56.509Z,87.04
2022-10-16T04:28:42.774Z,88.48
2022-10-16T04:31:29.065Z,88.49
2022-10-16T04:34:15.015Z,92.38
2022-10-16T04:37:01.476Z,98.39
2022-10-16T04:39:48.464Z,95.82
2022-10-16T04:42:42.634Z,93.21
2022-10-16T04:45:30.364Z,91.61
2022-10-16T04:48:17.401Z,89.59
2022-10-16T04:51:04.863Z,87.32
2022-10-16T04:53:50.926Z,87.18
2022-10-16T04:56:45.467Z,89.47
2022-10-16T04:59:40.640Z,91.99
2022-10-16T05:02:26.841Z,89.91
2022-10-16T05:05:13.947Z,88.92
2022-10-16T05:08:00.052Z,90.26
2022-10-16T05:10:46.642Z,90.73
2022-10-16T05:13:32.677Z,89.34
2022-10-16T05:16:19.210Z,88.96
2022-10-16T05:22:14.475Z,88.95
2022-10-16T05:25:02.045Z,89.66
2022-10-16T05:30:44.659Z,89.80
2022-10-16T05:33:31.763Z,92.05
2022-10-16T05:36:21.486Z,95.83
2022-10-16T05:39:09.175Z,94.07
2022-10-16T05:42:00.465Z,92.43
2022-10-16T05:44:48.703Z,92.23
2022-10-16T05:47:44.457Z,92.29
2022-10-16T05:50:32.440Z,90.15
2022-10-16T05:53:22.467Z,89.68
2022-10-16T05:56:12.488Z,89.80
2022-10-16T05:59:12.706Z,89.43
2022-10-16T06:02:01.031Z,89.73
2022-10-16T06:04:49.416Z,91.84
2022-10-16T06:07:36.950Z,88.84
2022-10-16T06:10:26.821Z,89.32
2022-10-16T06:13:23.374Z,89.93
2022-10-16T06:16:13.060Z,87.05
2022-10-16T06:19:09.417Z,88.49
2022-10-16T06:21:59.436Z,86.54
2022-10-16T06:24:47.510Z,87.43
2022-10-16T06:27:38.438Z,85.83
2022-10-16T06:33:28.529Z,87.35
2022-10-16T06:36:16.235Z,88.49
2022-10-16T06:39:02.957Z,86.75
2022-10-16T06:41:53.505Z,88.68
2022-10-16T06:44:45.147Z,86.39
2022-10-16T06:47:34.983Z,86.77
2022-10-16T06:50:26.217Z,85.90
2022-10-16T06:53:12.709Z,85.35
2022-10-16T06:56:00.713Z,88.93
2022-10-16T06:58:54.641Z,86.37
2022-10-16T07:01:44.037Z,84.94
2022-10-16T07:04:31.834Z,85.01
2022-10-16T07:07:25.757Z,84.53
2022-10-16T07:10:28.693Z,84.49
2022-10-16T07:16:19.471Z,84.76
2022-10-16T07:19:15.752Z,85.43
2022-10-16T07:22:04.157Z,81.20
2022-10-16T07:25:00.831Z,80.33
2022-10-16T07:27:57.425Z,80.62
2022-10-16T07:30:49.521Z,78.66
2022-10-16T07:33:37.523Z,79.33
2022-10-16T07:36:29.006Z,79.19
2022-10-16T07:39:18.748Z,78.52
2022-10-16T07:42:11.602Z,79.01
2022-10-16T07:45:05.634Z,76.23
2022-10-16T07:48:04.474Z,75.95
2022-10-16T07:50:52.981Z,76.16
2022-10-16T07:53:44.378Z,75.05
2022-10-16T07:56:31.948Z,75.41
2022-10-16T07:59:23.449Z,75.35
2022-10-16T08:02:09.987Z,74.83
2022-10-16T08:04:58.016Z,74.31
2022-10-16T08:07:53.649Z,75.61
2022-10-16T08:13:49.032Z,75.83
2022-10-16T08:16:40.487Z,75.93
2022-10-16T08:19:28.493Z,75.86
2022-10-16T08:22:27.587Z,76.33
2022-10-16T08:25:15.525Z,72.61
2022-10-16T08:28:08.432Z,75.45
2022-10-16T08:30:58.280Z,73.60
2022-10-16T08:33:48.404Z,75.04
2022-10-16T08:36:44.475Z,71.77
2022-10-16T08:39:40.444Z,73.09
2022-10-16T08:42:35.495Z,71.72
2022-10-16T08:45:34.448Z,71.12
2022-10-16T08:48:25.485Z,69.06
2022-10-16T08:51:19.777Z,70.25
2022-10-16T08:54:17.102Z,69.16
2022-10-16T08:57:29.484Z,69.96
2022-10-16T09:00:16.634Z,69.60
2022-10-16T09:03:11.797Z,67.25
2022-10-16T09:06:25.005Z,68.64
2022-10-16T09:09:40.423Z,66.95
2022-10-16T09:12:29.584Z,68.78
2022-10-16T09:15:34.918Z,68.49
2022-10-16T09:18:20.995Z,69.21
2022-10-16T09:21:21.617Z,67.10
2022-10-16T09:24:19.588Z,65.05
2022-10-16T09:27:12.524Z,63.81
2022-10-16T09:30:17.572Z,63.49
2022-10-16T09:33:05.073Z,65.22
2022-10-16T09:35:59.893Z,65.49
2022-10-16T09:38:47.666Z,66.51
2022-10-16T09:41:40.484Z,64.84
2022-10-16T09:44:38.526Z,65.73
2022-10-16T09:47:27.953Z,62.27
2022-10-16T09:50:41.372Z,63.98
2022-10-16T09:53:39.482Z,62.62
2022-10-16T09:56:31.481Z,59.26
2022-10-16T09:59:20.429Z,57.25
2022-10-16T10:02:11.774Z,57.61
2022-10-16T10:05:05.914Z,53.26
2022-10-16T10:08:14.202Z,50.87
2022-10-16T10:14:08.804Z,49.34
2022-10-16T10:17:13.791Z,48.60
2022-10-16T10:20:08.615Z,49.30
2022-10-16T10:22:56.629Z,47.74
2022-10-16T10:26:02.757Z,46.08
2022-10-16T10:32:00.609Z,46.95
2022-10-16T10:34:50.587Z,47.37
2022-10-16T10:37:41.461Z,45.07
2022-10-16T10:40:49.456Z,45.51
2022-10-16T10:43:41.249Z,46.79
2022-10-16T10:46:39.822Z,45.38
2022-10-16T10:49:49.029Z,45.28
2022-10-16T10:52:53.554Z,46.83
2022-10-16T10:55:43.586Z,46.08
2022-10-16T10:58:52.492Z,49.46
2022-10-16T11:01:44.112Z,50.31
2022-10-16T11:04:43.685Z,50.12
2022-10-16T11:07:52.908Z,50.61
2022-10-16T11:10:43.099Z,49.41
2022-10-16T11:13:34.477Z,51.54
2022-10-16T11:16:30.495Z,51.58
2022-10-16T11:19:21.458Z,51.44
2022-10-16T11:22:27.617Z,51.97
2022-10-16T11:25:18.751Z,52.81
2022-10-16T11:28:14.546Z,53.38
2022-10-16T11:31:23.438Z,54.23
2022-10-16T11:34:23.103Z,50.83
2022-10-16T11:37:16.235Z,51.68
2022-10-16T11:43:18.842Z,50.28
2022-10-16T11:46:14.513Z,52.80
2022-10-16T11:49:08.600Z,52.18
2022-10-16T11:52:22.515Z,51.59
2022-10-16T11:55:20.470Z,49.75
2022-10-16T11:58:37.460Z,50.07
2022-10-16T12:01:49.853Z,49.94
2022-10-16T12:04:46.551Z,48.46
2022-10-16T12:07:37.760Z,50.91
2022-10-16T12:10:29.955Z,49.22
2022-10-16T12:13:32.509Z,49.29
2022-10-16T12:16:22.628Z,49.32
2022-10-16T12:22:17.509Z,48.56
2022-10-16T12:25:04.342Z,48.58
2022-10-16T12:28:00.482Z,49.00
2022-10-16T12:31:00.729Z,50.60
2022-10-16T12:34:01.501Z,48.58
2022-10-16T12:36:48.190Z,47.84
2022-10-16T12:39:39.072Z,49.18
2022-10-16T12:42:30.740Z,50.74
2022-10-16T12:45:39.694Z,48.67
2022-10-16T12:48:48.242Z,48.22
2022-10-16T12:51:37.941Z,47.30
2022-10-16T12:54:32.484Z,48.68
2022-10-16T12:57:45.545Z,46.01
2022-10-16T13:00:38.156Z,45.38
2022-10-16T13:03:31.459Z,43.50
2022-10-16T13:06:24.117Z,41.74
2022-10-16T13:09:16.958Z,42.07
2022-10-16T13:12:23.578Z,43.19
2022-10-16T13:15:31.507Z,42.33
2022-10-16T13:18:26.006Z,41.29
2022-10-16T13:21:18.691Z,39.86
2022-10-16T13:27:12.502Z,40.37
2022-10-16T13:30:28.127Z,38.49
2022-10-16T13:33:36.527Z,37.74
2022-10-16T13:39:31.930Z,34.84
2022-10-16T13:42:28.559Z,34.41
2022-10-16T13:45:23.967Z,32.92
2022-10-16T13:48:17.565Z,33.55
2022-10-16T13:51:05.556Z,34.88
2022-10-16T13:53:52.460Z,33.63
2022-10-16T13:56:45.529Z,33.38
2022-10-16T13:59:35.751Z,32.35
2022-10-16T14:02:35.539Z,33.68
2022-10-16T14:05:31.462Z,33.20
2022-10-16T14:08:30.135Z,36.14
2022-10-16T14:11:25.326Z,33.40
2022-10-16T14:14:18.637Z,34.08
2022-10-16T14:17:06.695Z,33.99
2022-10-16T14:20:08.569Z,35.36
2022-10-16T14:23:01.305Z,34.32
2022-10-16T14:25:51.058Z,34.43
2022-10-16T14:28:38.251Z,33.44
2022-10-16T14:31:28.516Z,34.04
2022-10-16T14:34:29.509Z,33.23
2022-10-16T14:37:29.708Z,33.10
2022-10-16T14:40:31.843Z,32.25
2022-10-16T14:43:27.553Z,32.50
2022-10-16T14:46:41.491Z,32.61
2022-10-16T14:49:44.108Z,32.07
2022-10-16T14:52:31.923Z,31.02
2022-10-16T14:55:19.521Z,32.23
2022-10-16T14:58:06.559Z,31.54
2022-10-16T15:03:47.534Z,31.83
2022-10-16T15:06:37.758Z,31.30
2022-10-16T15:09:26.457Z,30.95
2022-10-16T15:12:16.493Z,32.32
2022-10-16T15:15:26.613Z,32.15
2022-10-16T15:18:21.602Z,32.90
2022-10-16T15:21:32.773Z,33.95
2022-10-16T15:24:22.030Z,34.20
2022-10-16T15:27:09.227Z,34.55
2022-10-16T15:29:57.459Z,35.30
2022-10-16T15:32:44.988Z,36.12
2022-10-16T15:35:45.539Z,37.00
2022-10-16T15:38:47.521Z,38.00
2022-10-16T15:41:35.095Z,39.52
2022-10-16T15:44:30.801Z,40.61
2022-10-16T15:47:19.928Z,41.94
2022-10-16T15:50:15.050Z,43.45
2022-10-16T15:53:12.550Z,44.53
2022-10-16T15:56:18.725Z,46.23
2022-10-16T15:59:17.355Z,47.70
2022-10-16T16:02:12.867Z,49.95
2022-10-16T16:05:07.586Z,51.61
2022-10-16T16:11:22.571Z,54.38
2022-10-16T16:14:17.500Z,54.08
2022-10-16T16:17:11.965Z,54.95
2022-10-16T16:26:10.859Z,56.64
2022-10-16T16:29:03.731Z,56.82
2022-10-16T16:32:01.575Z,57.04
2022-10-16T16:34:53.526Z,59.80
2022-10-16T16:37:50.533Z,61.79
2022-10-16T16:40:41.500Z,62.59
2022-10-16T16:43:45.564Z,63.54
2022-10-16T16:46:47.545Z,62.96
2022-10-16T16:49:53.505Z,63.13
2022-10-16T16:52:53.980Z,62.97
2022-10-16T16:55:45.829Z,63.89
2022-10-16T16:58:37.563Z,67.48
2022-10-16T17:04:35.545Z,65.65
2022-10-16T17:10:30.505Z,68.60
2022-10-16T17:13:17.801Z,69.86
2022-10-16T17:16:19.788Z,70.54
2022-10-16T17:22:22.502Z,71.15
2022-10-16T17:25:16.567Z,71.81
2022-10-16T17:28:12.727Z,71.10
2022-10-16T17:31:14.551Z,71.18
2022-10-16T17:34:18.476Z,70.76
2022-10-16T17:37:06.993Z,72.55
2022-10-16T17:40:25.454Z,71.89
2022-10-16T17:43:11.971Z,71.33
2022-10-16T17:46:06.935Z,70.11
2022-10-16T17:49:06.762Z,73.87
2022-10-16T17:51:57.793Z,75.60
2022-10-16T17:55:01.729Z,76.46
2022-10-16T17:57:53.496Z,77.81
2022-10-16T18:00:42.963Z,77.47
2022-10-16T18:03:32.819Z,76.87
2022-10-16T18:06:27.246Z,75.22
2022-10-16T18:09:42.604Z,72.69
2022-10-16T18:12:53.567Z,72.99
2022-10-16T18:16:04.816Z,76.47
2022-10-16T18:18:59.614Z,77.08
2022-10-16T18:21:53.518Z,76.80
2022-10-16T18:24:48.783Z,76.65
2022-10-16T18:33:35.635Z,78.95
2022-10-16T18:36:30.849Z,79.67
2022-10-16T18:39:22.542Z,79.77
2022-10-16T18:42:21.542Z,80.19
2022-10-16T18:45:15.909Z,79.49
2022-10-16T18:48:04.251Z,79.43
2022-10-16T18:50:55.515Z,79.45
2022-10-16T18:53:47.710Z,80.32
2022-10-16T18:56:47.749Z,78.91
2022-10-16T18:59:35.337Z,78.79
2022-10-16T19:02:25.856Z,77.68
2022-10-16T19:05:20.097Z,75.41
2022-10-16T19:08:16.648Z,75.74
2022-10-16T19:11:14.174Z,79.40
2022-10-16T19:14:11.530Z,78.34
2022-10-16T19:17:08.597Z,79.92
2022-10-16T19:20:03.513Z,78.83
2022-10-16T19:23:00.603Z,81.48
2022-10-16T19:34:51.559Z,83.49
2022-10-16T19:37:44.881Z,82.33
2022-10-16T19:40:38.901Z,83.48
2022-10-16T19:43:50.329Z,88.52
2022-10-16T19:46:45.404Z,93.54
2022-10-16T19:49:33.386Z,90.17
2022-10-16T19:52:27.686Z,91.36
2022-10-16T19:55:19.108Z,93.51
2022-10-16T20:01:15.686Z,87.21
2022-10-16T20:04:12.986Z,86.98
2022-10-16T20:07:07.590Z,87.53
2022-10-16T20:09:59.531Z,87.68
2022-10-16T20:12:46.476Z,88.07
2022-10-16T20:15:46.793Z,92.49
2022-10-16T20:18:41.238Z,92.38
2022-10-16T20:21:33.464Z,94.91
2022-10-16T20:24:24.094Z,91.65
2022-10-16T20:27:26.921Z,88.09
2022-10-16T20:30:14.700Z,87.90
2022-10-16T20:36:15.308Z,84.64
2022-10-16T20:39:09.717Z,85.88
2022-10-16T20:42:03.528Z,87.52
2022-10-16T20:44:51.395Z,86.13
2022-10-16T20:47:42.568Z,87.66
2022-10-16T20:50:31.511Z,86.23
2022-10-16T20:53:18.397Z,87.73
2022-10-16T20:56:11.533Z,88.32
2022-10-16T20:59:00.553Z,88.74
2022-10-16T21:01:54.244Z,89.18
2022-10-16T21:04:44.659Z,91.03
2022-10-16T21:10:36.506Z,92.50
2022-10-16T21:13:28.208Z,90.47
2022-10-16T21:16:18.613Z,89.20
2022-10-16T21:19:06.291Z,87.15
2022-10-16T21:21:52.325Z,88.60
2022-10-16T21:24:40.035Z,88.01
2022-10-16T21:27:27.737Z,88.01
2022-10-16T21:30:16.004Z,87.10
2022-10-16T21:33:05.925Z,87.91
2022-10-16T21:35:52.694Z,85.42
2022-10-16T21:38:38.778Z,85.61
2022-10-16T21:41:27.410Z,84.82
2022-10-16T21:44:13.953Z,84.99
2022-10-16T21:47:00.633Z,85.96
2022-10-16T21:49:48.775Z,86.14
2022-10-16T21:52:35.283Z,86.81
2022-10-16T21:55:23.994Z,87.60
2022-10-16T21:58:10.315Z,86.54
2022-10-16T22:00:56.877Z,88.08
2022-10-16T22:03:45.174Z,88.63
2022-10-16T22:06:31.956Z,93.37
2022-10-16T22:09:18.370Z,93.59
2022-10-16T22:12:04.951Z,91.15
2022-10-16T22:14:51.249Z,88.59
2022-10-16T22:17:37.663Z,87.55
2022-10-16T22:20:25.530Z,87.72
2022-10-16T22:23:13.411Z,87.54
2022-10-16T22:26:04.039Z,86.71
2022-10-16T22:28:50.553Z,85.83
2022-10-16T22:31:37.101Z,86.41
2022-10-16T22:34:23.532Z,87.62
2022-10-16T22:37:09.858Z,87.15
2022-10-16T22:40:00.945Z,85.94
2022-10-16T22:45:39.127Z,88.78
2022-10-16T22:48:25.661Z,87.50
2022-10-16T22:51:16.775Z,87.92
2022-10-16T22:54:04.215Z,89.10
2022-10-16T22:56:50.117Z,90.09
2022-10-16T22:59:37.082Z,89.59
2022-10-16T23:02:23.606Z,89.39
2022-10-16T23:05:11.895Z,89.73
2022-10-16T23:07:58.027Z,87.12
2022-10-16T23:10:47.083Z,85.08
2022-10-16T23:13:36.405Z,84.61
2022-10-16T23:16:23.733Z,85.43
2022-10-16T23:22:03.744Z,86.57
2022-10-16T23:24:50.070Z,88.03
2022-10-16T23:27:36.423Z,86.67
2022-10-16T23:30:23.959Z,87.48
2022-10-16T23:33:10.654Z,90.43
2022-10-16T23:35:56.536Z,91.16
2022-10-16T23:38:44.613Z,92.38
2022-10-16T23:41:30.516Z,97.61
2022-10-16T23:44:17.532Z,99.82
2022-10-16T23:47:03.972Z,96.54
2022-10-16T23:49:50.436Z,94.99
2022-10-16T23:52:37.459Z,91.08
2022-10-16T23:55:24.355Z,89.38
2022-10-16T23:58:10.854Z,91.32
